createdAt,value
2023-05-14T00:13:24.266Z,1005.605
2023-05-14T00:43:42.312Z,1005.495
2023-05-14T01:13:59.738Z,1005.39
2023-05-14T01:44:17.067Z,1005.2689999999999
2023-05-14T02:14:34.839Z,1005.133
2023-05-14T02:44:53.387Z,1005.0189999999999
2023-05-14T03:15:10.311Z,1004.8639999999999
2023-05-14T03:45:27.142Z,1004.8639999999999
2023-05-14T04:15:46.086Z,1004.8860000000001
2023-05-14T04:46:05.369Z,1005.035
2023-05-14T05:16:25.506Z,1005.02
2023-05-14T05:46:47.252Z,1005.09
2023-05-14T06:17:14.061Z,1005.079
2023-05-14T06:47:40.175Z,1005.194
2023-05-14T07:17:56.854Z,1005.1
2023-05-14T07:48:20.732Z,1004.934
2023-05-14T08:18:54.683Z,1004.6510000000001
2023-05-14T08:49:23.836Z,1004.3580000000001
2023-05-14T09:19:46.109Z,1004.072
2023-05-14T09:49:54.848Z,1004.196
2023-05-14T10:20:09.836Z,1004.1439999999999
2023-05-14T10:50:12.275Z,1004.1360000000001
2023-05-14T11:20:58.328Z,1003.8789999999999
2023-05-14T11:51:12.955Z,1003.643
2023-05-14T12:21:32.207Z,1003.248
2023-05-14T12:52:22.705Z,1003.0010000000001
2023-05-14T13:22:20.991Z,1002.555
2023-05-14T13:53:06.376Z,1002.2230000000001
2023-05-14T14:22:58.230Z,1001.9739999999999
2023-05-14T14:53:12.056Z,1001.83
2023-05-14T15:23:22.352Z,1001.553
2023-05-14T15:53:39.654Z,1001.513
2023-05-14T16:23:55.205Z,1001.5210000000001
2023-05-14T16:54:14.026Z,1001.7230000000001
2023-05-14T17:24:29.212Z,1001.672
2023-05-14T17:54:45.924Z,1001.7
2023-05-14T18:25:02.673Z,1001.8330000000001
2023-05-14T18:55:19.179Z,1002.0939999999999
2023-05-14T19:25:36.162Z,1002.273
2023-05-14T19:55:53.317Z,1002.2869999999999
2023-05-14T20:26:11.428Z,1002.313
2023-05-14T20:56:27.423Z,1002.079
2023-05-14T21:26:44.399Z,1001.762
2023-05-14T21:57:01.840Z,1001.755
2023-05-14T22:27:19.161Z,1001.6619999999999
2023-05-14T22:57:35.958Z,1001.414
2023-05-14T23:27:51.270Z,1001.2230000000001
2023-05-14T23:58:06.560Z,1000.883
